createdAt,value
2023-03-31T00:08:21.725Z,100.00
2023-03-31T00:18:26.950Z,100.00
2023-03-31T00:28:29.582Z,100.00
2023-03-31T00:38:33.388Z,100.00
2023-03-31T00:48:38.346Z,100.00
2023-03-31T00:58:43.965Z,100.00
2023-03-31T01:08:50.136Z,100.00
2023-03-31T01:18:52.700Z,100.00
2023-03-31T01:29:18.964Z,100.00
2023-03-31T01:39:40.552Z,100.00
2023-03-31T01:49:54.387Z,100.00
2023-03-31T02:00:03.285Z,100.00
2023-03-31T02:10:17.167Z,100.00
2023-03-31T02:20:22.129Z,100.00
2023-03-31T02:30:34.253Z,100.00
2023-03-31T02:40:37.237Z,100.00
2023-03-31T02:51:10.198Z,100.00
2023-03-31T03:01:37.112Z,100.00
2023-03-31T03:12:10.927Z,100.00
2023-03-31T03:22:13.409Z,100.00
2023-03-31T03:32:16.093Z,100.00
2023-03-31T03:42:18.544Z,100.00
2023-03-31T03:52:21.572Z,100.00
2023-03-31T04:02:26.210Z,100.00
2023-03-31T04:12:30.418Z,100.00
2023-03-31T04:22:35.403Z,100.00
2023-03-31T04:32:37.930Z,100.00
2023-03-31T04:42:40.590Z,100.00
2023-03-31T04:52:43.840Z,100.00
2023-03-31T05:02:47.733Z,100.00
2023-03-31T05:12:51.718Z,100.00
2023-03-31T05:22:58.532Z,100.00
2023-03-31T05:33:01.453Z,100.00
2023-03-31T05:43:05.238Z,100.00
2023-03-31T05:53:08.722Z,100.00
2023-03-31T06:03:11.715Z,100.00
2023-03-31T06:13:14.646Z,100.00
2023-03-31T06:23:17.801Z,98.58
2023-03-31T06:33:20.448Z,96.85
2023-03-31T06:43:26.118Z,90.72
2023-03-31T06:53:30.740Z,89.02
2023-03-31T07:03:39.745Z,86.37
2023-03-31T07:13:42.650Z,82.19
2023-03-31T07:23:45.480Z,78.08
2023-03-31T07:33:48.738Z,75.12
2023-03-31T07:43:51.484Z,74.94
2023-03-31T07:53:55.040Z,74.88
2023-03-31T08:04:05.766Z,73.12
2023-03-31T08:14:09.614Z,74.29
2023-03-31T08:24:12.213Z,69.01
2023-03-31T08:34:16.094Z,70.03
2023-03-31T08:44:42.262Z,66.66
2023-03-31T08:54:51.763Z,63.79
2023-03-31T09:05:11.454Z,65.28
2023-03-31T09:15:27.534Z,64.26
2023-03-31T09:36:22.713Z,62.11
2023-03-31T09:46:36.952Z,60.70
2023-03-31T09:56:42.450Z,57.24
2023-03-31T10:06:46.026Z,54.94
2023-03-31T10:16:55.936Z,57.37
2023-03-31T10:26:58.750Z,51.94
2023-03-31T10:37:06.612Z,50.68
2023-03-31T10:47:15.581Z,54.47
2023-03-31T10:57:23.892Z,51.38
2023-03-31T11:07:38.476Z,51.92
2023-03-31T11:17:59.941Z,49.81
2023-03-31T11:28:03.513Z,50.84
2023-03-31T11:38:16.090Z,55.50
2023-03-31T11:48:43.997Z,57.42
2023-03-31T11:58:53.042Z,57.73
2023-03-31T12:09:19.746Z,56.64
2023-03-31T12:19:28.781Z,55.55
2023-03-31T12:29:37.128Z,54.55
2023-03-31T12:40:22.928Z,53.79
2023-03-31T12:50:47.589Z,53.97
2023-03-31T13:01:17.133Z,54.13
2023-03-31T13:11:48.113Z,49.30
2023-03-31T13:22:33.262Z,48.86
2023-03-31T13:32:37.301Z,51.75
2023-03-31T13:43:03.166Z,47.94
2023-03-31T13:53:25.676Z,47.91
2023-03-31T14:03:53.780Z,46.77
2023-03-31T14:14:15.627Z,50.92
2023-03-31T14:24:41.791Z,51.73
2023-03-31T14:34:54.218Z,51.21
2023-03-31T14:45:01.737Z,59.63
2023-03-31T14:55:06.028Z,61.34
2023-03-31T15:05:25.552Z,65.19
2023-03-31T15:15:28.171Z,65.14
2023-03-31T15:25:41.956Z,62.33
2023-03-31T15:35:44.756Z,62.41
2023-03-31T15:46:01.507Z,63.36
2023-03-31T15:56:05.495Z,63.39
2023-03-31T16:06:53.487Z,63.34
2023-03-31T16:17:02.208Z,64.27
2023-03-31T16:27:07.927Z,64.75
2023-03-31T16:37:11.683Z,67.41
2023-03-31T16:47:20.613Z,67.88
2023-03-31T16:57:34.569Z,67.96
2023-03-31T17:07:37.315Z,69.77
2023-03-31T17:17:40.349Z,74.62
2023-03-31T17:27:43.605Z,84.41
2023-03-31T17:37:50.567Z,92.68
2023-03-31T17:47:53.366Z,100.00
2023-03-31T17:57:56.528Z,100.00
2023-03-31T18:07:59.372Z,100.00
2023-03-31T18:18:02.272Z,100.00
2023-03-31T18:28:05.155Z,100.00
2023-03-31T18:38:07.860Z,100.00
2023-03-31T18:48:12.076Z,100.00
2023-03-31T18:58:15.005Z,100.00
2023-03-31T19:08:17.787Z,100.00
2023-03-31T19:18:21.306Z,100.00
2023-03-31T19:28:26.526Z,100.00
2023-03-31T19:38:32.452Z,100.00
2023-03-31T19:48:35.488Z,100.00
2023-03-31T19:58:38.924Z,100.00
2023-03-31T20:08:42.807Z,100.00
2023-03-31T20:18:51.555Z,100.00
2023-03-31T20:28:56.044Z,100.00
2023-03-31T20:39:00.342Z,100.00
2023-03-31T20:49:03.597Z,100.00
2023-03-31T20:59:09.831Z,100.00
2023-03-31T21:09:14.831Z,100.00
2023-03-31T21:19:17.684Z,100.00
2023-03-31T21:29:20.504Z,100.00
2023-03-31T21:39:23.088Z,100.00
2023-03-31T21:49:25.813Z,100.00
2023-03-31T21:59:28.335Z,100.00
2023-03-31T22:09:31.008Z,100.00
2023-03-31T22:19:34.300Z,100.00
2023-03-31T22:29:37.020Z,100.00
2023-03-31T22:39:39.578Z,100.00
2023-03-31T22:49:42.117Z,100.00
2023-03-31T22:59:44.668Z,100.00
2023-03-31T23:09:47.203Z,100.00
2023-03-31T23:19:49.916Z,100.00
2023-03-31T23:29:52.472Z,100.00
2023-03-31T23:39:54.907Z,100.00
2023-03-31T23:49:57.366Z,100.00
2023-03-31T23:59:59.814Z,100.00
